sensor_id;sensor_type;location;lat;lon;timestamp;temperature;humidity
14097;DHT22;7125;48.106;11.544;2023-01-15T00:01:22;7.20;99.90
14097;DHT22;7125;48.106;11.544;2023-01-15T00:03:50;7.00;99.90
14097;DHT22;7125;48.106;11.544;2023-01-15T00:06:22;6.90;99.90
14097;DHT22;7125;48.106;11.544;2023-01-15T00:08:50;6.70;99.90
14097;DHT22;7125;48.106;11.544;2023-01-15T00:11:19;6.60;99.90
14097;DHT22;7125;48.106;11.544;2023-01-15T00:13:47;6.50;99.90
14097;DHT22;7125;48.106;11.544;2023-01-15T00:16:17;6.40;99.90
14097;DHT22;7125;48.106;11.544;2023-01-15T00:18:49;6.30;99.90
14097;DHT22;7125;48.106;11.544;2023-01-15T00:21:17;6.20;99.90
14097;DHT22;7125;48.106;11.544;2023-01-15T00:23:46;6.20;99.90
14097;DHT22;7125;48.106;11.544;2023-01-15T00:26:32;6.30;99.90
14097;DHT22;7125;48.106;11.544;2023-01-15T00:29:18;6.40;99.90
14097;DHT22;7125;48.106;11.544;2023-01-15T00:31:52;6.50;99.90
14097;DHT22;7125;48.106;11.544;2023-01-15T00:34:19;6.50;99.90
14097;DHT22;7125;48.106;11.544;2023-01-15T00:36:46;6.40;99.90
14097;DHT22;7125;48.106;11.544;2023-01-15T00:39:14;6.40;99.90
14097;DHT22;7125;48.106;11.544;2023-01-15T00:41:41;6.40;99.90
14097;DHT22;7125;48.106;11.544;2023-01-15T00:44:08;6.40;99.90
14097;DHT22;7125;48.106;11.544;2023-01-15T00:46:35;6.40;99.90
14097;DHT22;7125;48.106;11.544;2023-01-15T00:49:03;6.40;99.90
14097;DHT22;7125;48.106;11.544;2023-01-15T00:51:30;6.40;99.90
14097;DHT22;7125;48.106;11.544;2023-01-15T00:53:58;6.40;99.90
14097;DHT22;7125;48.106;11.544;2023-01-15T00:56:27;6.30;99.90
14097;DHT22;7125;48.106;11.544;2023-01-15T00:58:55;6.30;99.90
14097;DHT22;7125;48.106;11.544;2023-01-15T01:01:22;6.30;99.90
14097;DHT22;7125;48.106;11.544;2023-01-15T01:03:50;6.30;99.90
14097;DHT22;7125;48.106;11.544;2023-01-15T01:06:19;6.20;99.90
14097;DHT22;7125;48.106;11.544;2023-01-15T01:08:46;6.20;99.90
14097;DHT22;7125;48.106;11.544;2023-01-15T01:11:16;6.30;99.90
14097;DHT22;7125;48.106;11.544;2023-01-15T01:13:46;6.20;99.90
14097;DHT22;7125;48.106;11.544;2023-01-15T01:16:26;6.20;99.90
14097;DHT22;7125;48.106;11.544;2023-01-15T01:18:55;6.20;99.90
14097;DHT22;7125;48.106;11.544;2023-01-15T01:21:24;6.20;99.90
14097;DHT22;7125;48.106;11.544;2023-01-15T01:23:54;6.20;99.90
14097;DHT22;7125;48.106;11.544;2023-01-15T01:26:21;6.30;99.90
14097;DHT22;7125;48.106;11.544;2023-01-15T01:28:50;6.40;99.90
14097;DHT22;7125;48.106;11.544;2023-01-15T01:31:18;6.60;99.90
14097;DHT22;7125;48.106;11.544;2023-01-15T01:33:47;6.60;99.90
14097;DHT22;7125;48.106;11.544;2023-01-15T01:36:17;6.60;99.90
14097;DHT22;7125;48.106;11.544;2023-01-15T01:38:47;6.60;99.90
14097;DHT22;7125;48.106;11.544;2023-01-15T01:41:15;6.50;99.90
14097;DHT22;7125;48.106;11.544;2023-01-15T01:44:06;6.40;99.90
14097;DHT22;7125;48.106;11.544;2023-01-15T01:46:35;6.30;99.90
14097;DHT22;7125;48.106;11.544;2023-01-15T01:49:05;6.20;99.90
14097;DHT22;7125;48.106;11.544;2023-01-15T01:51:36;6.10;99.90
14097;DHT22;7125;48.106;11.544;2023-01-15T01:54:05;6.00;99.90
14097;DHT22;7125;48.106;11.544;2023-01-15T01:56:35;5.90;99.90
14097;DHT22;7125;48.106;11.544;2023-01-15T01:59:04;5.80;99.90
14097;DHT22;7125;48.106;11.544;2023-01-15T02:01:33;5.80;99.90
14097;DHT22;7125;48.106;11.544;2023-01-15T02:04:01;5.70;99.90
14097;DHT22;7125;48.106;11.544;2023-01-15T02:06:30;5.70;99.90
14097;DHT22;7125;48.106;11.544;2023-01-15T02:08:58;5.70;99.90
14097;DHT22;7125;48.106;11.544;2023-01-15T02:11:25;5.70;99.90
14097;DHT22;7125;48.106;11.544;2023-01-15T02:13:57;5.60;99.90
14097;DHT22;7125;48.106;11.544;2023-01-15T02:16:33;5.70;99.90
14097;DHT22;7125;48.106;11.544;2023-01-15T02:19:13;5.70;99.90
14097;DHT22;7125;48.106;11.544;2023-01-15T02:21:49;5.70;99.90
14097;DHT22;7125;48.106;11.544;2023-01-15T02:24:22;5.70;99.90
14097;DHT22;7125;48.106;11.544;2023-01-15T02:27:03;5.70;99.90
14097;DHT22;7125;48.106;11.544;2023-01-15T02:29:42;5.70;99.90
14097;DHT22;7125;48.106;11.544;2023-01-15T02:32:15;5.80;99.90
14097;DHT22;7125;48.106;11.544;2023-01-15T02:34:48;5.80;99.90
14097;DHT22;7125;48.106;11.544;2023-01-15T02:37:21;5.80;99.90
14097;DHT22;7125;48.106;11.544;2023-01-15T02:39:53;5.80;99.90
14097;DHT22;7125;48.106;11.544;2023-01-15T02:42:27;5.90;99.90
14097;DHT22;7125;48.106;11.544;2023-01-15T02:44:59;5.90;99.90
14097;DHT22;7125;48.106;11.544;2023-01-15T02:47:33;5.90;99.90
14097;DHT22;7125;48.106;11.544;2023-01-15T02:50:06;6.00;99.90
14097;DHT22;7125;48.106;11.544;2023-01-15T02:52:42;6.00;99.90
14097;DHT22;7125;48.106;11.544;2023-01-15T02:55:16;6.00;99.90
14097;DHT22;7125;48.106;11.544;2023-01-15T02:57:47;6.10;99.90
14097;DHT22;7125;48.106;11.544;2023-01-15T03:00:18;6.20;99.90
14097;DHT22;7125;48.106;11.544;2023-01-15T03:02:52;6.20;99.90
14097;DHT22;7125;48.106;11.544;2023-01-15T03:05:25;6.20;99.90
14097;DHT22;7125;48.106;11.544;2023-01-15T03:07:55;6.20;99.90
14097;DHT22;7125;48.106;11.544;2023-01-15T03:10:31;6.20;99.90
14097;DHT22;7125;48.106;11.544;2023-01-15T03:13:05;6.20;99.90
14097;DHT22;7125;48.106;11.544;2023-01-15T03:15:52;6.20;99.90
14097;DHT22;7125;48.106;11.544;2023-01-15T03:18:50;6.20;99.90
14097;DHT22;7125;48.106;11.544;2023-01-15T03:21:21;6.20;99.90
14097;DHT22;7125;48.106;11.544;2023-01-15T03:23:54;6.20;99.90
14097;DHT22;7125;48.106;11.544;2023-01-15T03:26:25;6.30;99.90
14097;DHT22;7125;48.106;11.544;2023-01-15T03:28:55;6.30;99.90
14097;DHT22;7125;48.106;11.544;2023-01-15T03:31:23;6.20;99.90
14097;DHT22;7125;48.106;11.544;2023-01-15T03:33:50;6.20;99.90
14097;DHT22;7125;48.106;11.544;2023-01-15T03:36:20;6.10;99.90
14097;DHT22;7125;48.106;11.544;2023-01-15T03:38:49;6.10;99.90
14097;DHT22;7125;48.106;11.544;2023-01-15T03:41:44;6.00;99.90
14097;DHT22;7125;48.106;11.544;2023-01-15T03:44:22;6.00;99.90
14097;DHT22;7125;48.106;11.544;2023-01-15T03:46:59;5.90;99.90
14097;DHT22;7125;48.106;11.544;2023-01-15T03:49:37;5.90;99.90
14097;DHT22;7125;48.106;11.544;2023-01-15T03:52:20;5.90;99.90
14097;DHT22;7125;48.106;11.544;2023-01-15T03:55:01;5.90;99.90
14097;DHT22;7125;48.106;11.544;2023-01-15T03:57:33;5.80;99.90
14097;DHT22;7125;48.106;11.544;2023-01-15T04:00:19;5.80;99.90
14097;DHT22;7125;48.106;11.544;2023-01-15T04:02:53;5.80;99.90
14097;DHT22;7125;48.106;11.544;2023-01-15T04:05:25;5.80;99.90
14097;DHT22;7125;48.106;11.544;2023-01-15T04:07:54;5.80;99.90
14097;DHT22;7125;48.106;11.544;2023-01-15T04:10:23;5.80;99.90
14097;DHT22;7125;48.106;11.544;2023-01-15T04:12:51;5.90;99.90
14097;DHT22;7125;48.106;11.544;2023-01-15T04:15:20;5.90;99.90
14097;DHT22;7125;48.106;11.544;2023-01-15T04:17:48;5.90;99.90
14097;DHT22;7125;48.106;11.544;2023-01-15T04:20:16;5.90;99.90
14097;DHT22;7125;48.106;11.544;2023-01-15T04:22:45;5.90;99.90
14097;DHT22;7125;48.106;11.544;2023-01-15T04:25:12;5.90;99.90
14097;DHT22;7125;48.106;11.544;2023-01-15T04:27:39;5.90;99.90
14097;DHT22;7125;48.106;11.544;2023-01-15T04:30:09;5.90;99.90
14097;DHT22;7125;48.106;11.544;2023-01-15T04:32:38;6.00;99.90
14097;DHT22;7125;48.106;11.544;2023-01-15T04:35:06;6.00;99.90
14097;DHT22;7125;48.106;11.544;2023-01-15T04:37:33;6.00;99.90
14097;DHT22;7125;48.106;11.544;2023-01-15T04:40:00;6.00;99.90
14097;DHT22;7125;48.106;11.544;2023-01-15T04:42:27;6.00;99.90
14097;DHT22;7125;48.106;11.544;2023-01-15T04:45:12;6.00;99.90
14097;DHT22;7125;48.106;11.544;2023-01-15T04:47:41;5.90;99.90
14097;DHT22;7125;48.106;11.544;2023-01-15T04:50:09;5.90;99.90
14097;DHT22;7125;48.106;11.544;2023-01-15T04:52:36;5.90;99.90
14097;DHT22;7125;48.106;11.544;2023-01-15T04:55:04;5.90;99.90
14097;DHT22;7125;48.106;11.544;2023-01-15T04:57:31;5.90;99.90
14097;DHT22;7125;48.106;11.544;2023-01-15T04:59:59;5.90;99.90
14097;DHT22;7125;48.106;11.544;2023-01-15T05:02:26;5.90;99.90
14097;DHT22;7125;48.106;11.544;2023-01-15T05:04:55;5.80;99.90
14097;DHT22;7125;48.106;11.544;2023-01-15T05:07:22;5.80;99.90
14097;DHT22;7125;48.106;11.544;2023-01-15T05:09:49;5.80;99.90
14097;DHT22;7125;48.106;11.544;2023-01-15T05:12:18;5.80;99.90
14097;DHT22;7125;48.106;11.544;2023-01-15T05:14:46;5.80;99.90
14097;DHT22;7125;48.106;11.544;2023-01-15T05:17:13;5.80;99.90
14097;DHT22;7125;48.106;11.544;2023-01-15T05:19:40;5.90;99.90
14097;DHT22;7125;48.106;11.544;2023-01-15T05:22:08;5.90;99.90
14097;DHT22;7125;48.106;11.544;2023-01-15T05:24:36;5.90;99.90
14097;DHT22;7125;48.106;11.544;2023-01-15T05:27:03;5.90;99.90
14097;DHT22;7125;48.106;11.544;2023-01-15T05:29:31;6.00;99.90
14097;DHT22;7125;48.106;11.544;2023-01-15T05:31:58;6.00;99.90
14097;DHT22;7125;48.106;11.544;2023-01-15T05:34:26;6.00;99.90
14097;DHT22;7125;48.106;11.544;2023-01-15T05:36:53;6.10;99.90
14097;DHT22;7125;48.106;11.544;2023-01-15T05:39:21;6.10;99.90
14097;DHT22;7125;48.106;11.544;2023-01-15T05:41:48;6.20;99.90
14097;DHT22;7125;48.106;11.544;2023-01-15T05:44:17;6.30;99.90
14097;DHT22;7125;48.106;11.544;2023-01-15T05:46:45;6.30;99.90
14097;DHT22;7125;48.106;11.544;2023-01-15T05:49:15;6.50;99.90
14097;DHT22;7125;48.106;11.544;2023-01-15T05:51:42;6.70;99.90
14097;DHT22;7125;48.106;11.544;2023-01-15T05:54:11;6.80;99.90
14097;DHT22;7125;48.106;11.544;2023-01-15T05:56:40;6.90;99.90
14097;DHT22;7125;48.106;11.544;2023-01-15T05:59:08;7.40;99.90
14097;DHT22;7125;48.106;11.544;2023-01-15T06:01:35;7.80;99.90
14097;DHT22;7125;48.106;11.544;2023-01-15T06:04:04;8.10;99.90
14097;DHT22;7125;48.106;11.544;2023-01-15T06:06:33;8.50;99.90
14097;DHT22;7125;48.106;11.544;2023-01-15T06:09:02;8.90;99.90
14097;DHT22;7125;48.106;11.544;2023-01-15T06:11:31;9.20;99.90
14097;DHT22;7125;48.106;11.544;2023-01-15T06:14:00;9.40;99.90
14097;DHT22;7125;48.106;11.544;2023-01-15T06:16:27;9.60;99.90
14097;DHT22;7125;48.106;11.544;2023-01-15T06:18:59;9.60;99.90
14097;DHT22;7125;48.106;11.544;2023-01-15T06:21:29;9.50;99.90
14097;DHT22;7125;48.106;11.544;2023-01-15T06:23:56;9.40;99.90
14097;DHT22;7125;48.106;11.544;2023-01-15T06:26:23;9.30;99.90
14097;DHT22;7125;48.106;11.544;2023-01-15T06:28:50;9.50;99.90
14097;DHT22;7125;48.106;11.544;2023-01-15T06:31:21;9.60;99.90
14097;DHT22;7125;48.106;11.544;2023-01-15T06:33:49;9.90;99.90
14097;DHT22;7125;48.106;11.544;2023-01-15T06:36:17;10.20;99.90
14097;DHT22;7125;48.106;11.544;2023-01-15T06:38:48;10.40;99.90
14097;DHT22;7125;48.106;11.544;2023-01-15T06:41:19;10.60;99.90
14097;DHT22;7125;48.106;11.544;2023-01-15T06:44:05;10.80;99.90
14097;DHT22;7125;48.106;11.544;2023-01-15T06:46:53;10.90;99.90
14097;DHT22;7125;48.106;11.544;2023-01-15T06:49:38;11.00;99.90
14097;DHT22;7125;48.106;11.544;2023-01-15T06:52:06;11.10;99.90
14097;DHT22;7125;48.106;11.544;2023-01-15T06:54:34;11.10;99.90
14097;DHT22;7125;48.106;11.544;2023-01-15T06:57:05;11.10;99.90
14097;DHT22;7125;48.106;11.544;2023-01-15T06:59:32;11.10;99.90
14097;DHT22;7125;48.106;11.544;2023-01-15T07:02:01;11.20;99.90
14097;DHT22;7125;48.106;11.544;2023-01-15T07:04:28;11.30;99.90
14097;DHT22;7125;48.106;11.544;2023-01-15T07:06:56;11.30;99.90
14097;DHT22;7125;48.106;11.544;2023-01-15T07:09:25;11.40;99.90
14097;DHT22;7125;48.106;11.544;2023-01-15T07:11:54;11.30;99.90
14097;DHT22;7125;48.106;11.544;2023-01-15T07:14:23;11.30;99.90
14097;DHT22;7125;48.106;11.544;2023-01-15T07:16:52;11.20;99.90
14097;DHT22;7125;48.106;11.544;2023-01-15T07:19:22;11.10;99.90
14097;DHT22;7125;48.106;11.544;2023-01-15T07:21:51;11.10;99.90
14097;DHT22;7125;48.106;11.544;2023-01-15T07:24:18;11.20;99.90
14097;DHT22;7125;48.106;11.544;2023-01-15T07:26:46;11.20;99.90
14097;DHT22;7125;48.106;11.544;2023-01-15T07:29:13;11.10;99.90
14097;DHT22;7125;48.106;11.544;2023-01-15T07:31:40;11.00;99.90
14097;DHT22;7125;48.106;11.544;2023-01-15T07:34:07;11.00;99.90
14097;DHT22;7125;48.106;11.544;2023-01-15T07:36:37;11.00;99.90
14097;DHT22;7125;48.106;11.544;2023-01-15T07:39:04;11.00;99.90
14097;DHT22;7125;48.106;11.544;2023-01-15T07:41:31;11.20;99.90
14097;DHT22;7125;48.106;11.544;2023-01-15T07:44:16;11.20;99.90
14097;DHT22;7125;48.106;11.544;2023-01-15T07:47:01;11.30;99.90
14097;DHT22;7125;48.106;11.544;2023-01-15T07:49:46;11.40;99.90
14097;DHT22;7125;48.106;11.544;2023-01-15T07:52:17;11.40;99.90
14097;DHT22;7125;48.106;11.544;2023-01-15T07:54:46;11.40;99.90
14097;DHT22;7125;48.106;11.544;2023-01-15T07:57:16;11.50;99.90
14097;DHT22;7125;48.106;11.544;2023-01-15T07:59:44;11.50;99.90
14097;DHT22;7125;48.106;11.544;2023-01-15T08:02:11;11.50;99.90
14097;DHT22;7125;48.106;11.544;2023-01-15T08:04:39;11.60;99.90
14097;DHT22;7125;48.106;11.544;2023-01-15T08:07:06;11.60;99.90
14097;DHT22;7125;48.106;11.544;2023-01-15T08:09:35;11.60;99.90
14097;DHT22;7125;48.106;11.544;2023-01-15T08:12:02;11.60;99.90
14097;DHT22;7125;48.106;11.544;2023-01-15T08:14:47;11.60;99.90
14097;DHT22;7125;48.106;11.544;2023-01-15T08:17:34;11.60;99.90
14097;DHT22;7125;48.106;11.544;2023-01-15T08:20:01;11.50;99.90
14097;DHT22;7125;48.106;11.544;2023-01-15T08:22:29;11.50;99.90
14097;DHT22;7125;48.106;11.544;2023-01-15T08:24:58;11.60;99.90
14097;DHT22;7125;48.106;11.544;2023-01-15T08:27:25;11.70;99.90
14097;DHT22;7125;48.106;11.544;2023-01-15T08:29:53;11.70;99.90
14097;DHT22;7125;48.106;11.544;2023-01-15T08:32:21;11.70;99.90
14097;DHT22;7125;48.106;11.544;2023-01-15T08:34:48;11.80;99.90
14097;DHT22;7125;48.106;11.544;2023-01-15T08:37:15;11.80;99.90
14097;DHT22;7125;48.106;11.544;2023-01-15T08:39:42;11.80;99.90
14097;DHT22;7125;48.106;11.544;2023-01-15T08:42:12;11.80;99.90
14097;DHT22;7125;48.106;11.544;2023-01-15T08:44:39;11.70;99.90
14097;DHT22;7125;48.106;11.544;2023-01-15T08:47:06;11.70;99.90
14097;DHT22;7125;48.106;11.544;2023-01-15T08:49:34;11.80;99.90
14097;DHT22;7125;48.106;11.544;2023-01-15T08:52:01;11.80;99.90
14097;DHT22;7125;48.106;11.544;2023-01-15T08:54:28;11.80;99.90
14097;DHT22;7125;48.106;11.544;2023-01-15T08:56:58;11.90;99.90
14097;DHT22;7125;48.106;11.544;2023-01-15T08:59:44;11.90;99.90
14097;DHT22;7125;48.106;11.544;2023-01-15T09:02:14;12.00;99.90
14097;DHT22;7125;48.106;11.544;2023-01-15T09:04:42;12.10;99.90
14097;DHT22;7125;48.106;11.544;2023-01-15T09:07:09;12.20;99.90
14097;DHT22;7125;48.106;11.544;2023-01-15T09:09:37;12.20;99.90
14097;DHT22;7125;48.106;11.544;2023-01-15T09:12:04;12.10;99.90
14097;DHT22;7125;48.106;11.544;2023-01-15T09:14:31;12.10;99.90
14097;DHT22;7125;48.106;11.544;2023-01-15T09:17:00;12.20;99.90
14097;DHT22;7125;48.106;11.544;2023-01-15T09:19:27;12.20;99.90
14097;DHT22;7125;48.106;11.544;2023-01-15T09:21:57;12.20;99.90
14097;DHT22;7125;48.106;11.544;2023-01-15T09:24:24;12.30;99.90
14097;DHT22;7125;48.106;11.544;2023-01-15T09:26:51;12.30;99.90
14097;DHT22;7125;48.106;11.544;2023-01-15T09:29:19;12.50;99.90
14097;DHT22;7125;48.106;11.544;2023-01-15T09:31:46;12.50;99.90
14097;DHT22;7125;48.106;11.544;2023-01-15T09:34:14;12.60;99.90
14097;DHT22;7125;48.106;11.544;2023-01-15T09:36:42;12.70;99.90
14097;DHT22;7125;48.106;11.544;2023-01-15T09:39:11;12.80;99.90
14097;DHT22;7125;48.106;11.544;2023-01-15T09:41:55;12.80;99.90
14097;DHT22;7125;48.106;11.544;2023-01-15T09:44:44;13.00;99.90
14097;DHT22;7125;48.106;11.544;2023-01-15T09:47:21;13.10;99.90
14097;DHT22;7125;48.106;11.544;2023-01-15T09:50:20;13.10;99.90
14097;DHT22;7125;48.106;11.544;2023-01-15T09:53:14;13.20;99.90
14097;DHT22;7125;48.106;11.544;2023-01-15T09:55:47;13.30;99.90
14097;DHT22;7125;48.106;11.544;2023-01-15T09:58:18;13.40;99.90
14097;DHT22;7125;48.106;11.544;2023-01-15T10:00:49;13.50;99.50
14097;DHT22;7125;48.106;11.544;2023-01-15T10:03:25;13.50;99.20
14097;DHT22;7125;48.106;11.544;2023-01-15T10:06:03;13.50;99.10
14097;DHT22;7125;48.106;11.544;2023-01-15T10:08:38;13.50;99.10
14097;DHT22;7125;48.106;11.544;2023-01-15T10:11:30;13.60;99.20
14097;DHT22;7125;48.106;11.544;2023-01-15T10:14:20;13.50;99.10
14097;DHT22;7125;48.106;11.544;2023-01-15T10:16:50;13.30;99.90
14097;DHT22;7125;48.106;11.544;2023-01-15T10:19:18;12.60;99.90
14097;DHT22;7125;48.106;11.544;2023-01-15T10:21:54;11.80;99.90
14097;DHT22;7125;48.106;11.544;2023-01-15T10:24:31;10.90;99.90
14097;DHT22;7125;48.106;11.544;2023-01-15T10:27:10;10.10;99.90
14097;DHT22;7125;48.106;11.544;2023-01-15T10:29:42;9.50;99.90
14097;DHT22;7125;48.106;11.544;2023-01-15T10:32:22;9.00;99.90
14097;DHT22;7125;48.106;11.544;2023-01-15T10:35:14;8.60;99.90
14097;DHT22;7125;48.106;11.544;2023-01-15T10:37:49;8.40;99.90
14097;DHT22;7125;48.106;11.544;2023-01-15T10:40:30;8.10;99.90
14097;DHT22;7125;48.106;11.544;2023-01-15T10:43:03;7.90;99.90
14097;DHT22;7125;48.106;11.544;2023-01-15T10:45:34;7.70;99.90
14097;DHT22;7125;48.106;11.544;2023-01-15T10:48:11;7.70;99.90
14097;DHT22;7125;48.106;11.544;2023-01-15T10:50:40;7.50;99.90
14097;DHT22;7125;48.106;11.544;2023-01-15T10:53:13;7.40;99.90
14097;DHT22;7125;48.106;11.544;2023-01-15T10:55:44;7.40;99.90
14097;DHT22;7125;48.106;11.544;2023-01-15T10:58:20;7.40;99.90
14097;DHT22;7125;48.106;11.544;2023-01-15T11:00:56;7.40;99.90
14097;DHT22;7125;48.106;11.544;2023-01-15T11:03:33;7.40;99.90
14097;DHT22;7125;48.106;11.544;2023-01-15T11:06:01;7.50;99.90
14097;DHT22;7125;48.106;11.544;2023-01-15T11:08:32;7.40;99.90
14097;DHT22;7125;48.106;11.544;2023-01-15T11:11:13;7.50;99.90
14097;DHT22;7125;48.106;11.544;2023-01-15T11:13:51;7.40;99.90
14097;DHT22;7125;48.106;11.544;2023-01-15T11:16:36;7.30;99.90
14097;DHT22;7125;48.106;11.544;2023-01-15T11:19:26;7.30;99.90
14097;DHT22;7125;48.106;11.544;2023-01-15T11:22:10;7.20;99.90
14097;DHT22;7125;48.106;11.544;2023-01-15T11:24:46;7.20;99.90
14097;DHT22;7125;48.106;11.544;2023-01-15T11:27:19;7.20;99.90
14097;DHT22;7125;48.106;11.544;2023-01-15T11:29:51;7.30;99.90
14097;DHT22;7125;48.106;11.544;2023-01-15T11:32:23;7.30;99.90
14097;DHT22;7125;48.106;11.544;2023-01-15T11:34:52;7.30;99.90
14097;DHT22;7125;48.106;11.544;2023-01-15T11:37:22;7.30;99.90
14097;DHT22;7125;48.106;11.544;2023-01-15T11:39:55;7.20;99.90
14097;DHT22;7125;48.106;11.544;2023-01-15T11:42:25;7.00;99.90
14097;DHT22;7125;48.106;11.544;2023-01-15T11:45:14;6.90;99.90
14097;DHT22;7125;48.106;11.544;2023-01-15T11:48:08;6.70;99.90
14097;DHT22;7125;48.106;11.544;2023-01-15T11:51:01;6.50;99.90
14097;DHT22;7125;48.106;11.544;2023-01-15T11:53:32;6.40;99.90
14097;DHT22;7125;48.106;11.544;2023-01-15T11:56:04;6.30;99.90
14097;DHT22;7125;48.106;11.544;2023-01-15T11:58:33;6.20;99.90
14097;DHT22;7125;48.106;11.544;2023-01-15T12:01:05;6.00;99.90
14097;DHT22;7125;48.106;11.544;2023-01-15T12:03:35;5.90;99.90
14097;DHT22;7125;48.106;11.544;2023-01-15T12:06:04;5.80;99.90
14097;DHT22;7125;48.106;11.544;2023-01-15T12:08:42;5.70;99.90
14097;DHT22;7125;48.106;11.544;2023-01-15T12:11:38;5.60;99.90
14097;DHT22;7125;48.106;11.544;2023-01-15T12:14:33;5.60;99.90
14097;DHT22;7125;48.106;11.544;2023-01-15T12:17:08;5.50;99.90
14097;DHT22;7125;48.106;11.544;2023-01-15T12:19:44;5.40;99.90
14097;DHT22;7125;48.106;11.544;2023-01-15T12:22:31;5.40;99.90
14097;DHT22;7125;48.106;11.544;2023-01-15T12:25:13;5.40;99.90
14097;DHT22;7125;48.106;11.544;2023-01-15T12:28:09;5.40;99.90
14097;DHT22;7125;48.106;11.544;2023-01-15T12:30:42;5.30;99.90
14097;DHT22;7125;48.106;11.544;2023-01-15T12:33:26;5.30;99.90
14097;DHT22;7125;48.106;11.544;2023-01-15T12:36:07;5.20;99.90
14097;DHT22;7125;48.106;11.544;2023-01-15T12:38:47;5.20;99.90
14097;DHT22;7125;48.106;11.544;2023-01-15T12:41:18;5.20;99.90
14097;DHT22;7125;48.106;11.544;2023-01-15T12:43:51;5.20;99.90
14097;DHT22;7125;48.106;11.544;2023-01-15T12:46:40;5.10;99.90
14097;DHT22;7125;48.106;11.544;2023-01-15T12:49:15;5.10;99.90
14097;DHT22;7125;48.106;11.544;2023-01-15T12:51:50;5.10;99.90
14097;DHT22;7125;48.106;11.544;2023-01-15T12:54:22;5.10;99.90
14097;DHT22;7125;48.106;11.544;2023-01-15T12:56:56;5.10;99.90
14097;DHT22;7125;48.106;11.544;2023-01-15T12:59:29;5.10;99.90
14097;DHT22;7125;48.106;11.544;2023-01-15T13:02:10;5.10;99.90
14097;DHT22;7125;48.106;11.544;2023-01-15T13:04:45;5.10;99.90
14097;DHT22;7125;48.106;11.544;2023-01-15T13:07:20;5.20;99.90
14097;DHT22;7125;48.106;11.544;2023-01-15T13:09:54;5.20;99.90
14097;DHT22;7125;48.106;11.544;2023-01-15T13:12:21;5.20;99.90
14097;DHT22;7125;48.106;11.544;2023-01-15T13:14:50;5.20;99.90
14097;DHT22;7125;48.106;11.544;2023-01-15T13:17:25;5.20;99.90
14097;DHT22;7125;48.106;11.544;2023-01-15T13:20:11;5.20;99.90
14097;DHT22;7125;48.106;11.544;2023-01-15T13:22:49;5.20;99.90
14097;DHT22;7125;48.106;11.544;2023-01-15T13:25:31;5.20;99.90
14097;DHT22;7125;48.106;11.544;2023-01-15T13:28:17;5.20;99.90
14097;DHT22;7125;48.106;11.544;2023-01-15T13:30:59;5.20;99.90
14097;DHT22;7125;48.106;11.544;2023-01-15T13:33:31;5.20;99.90
14097;DHT22;7125;48.106;11.544;2023-01-15T13:36:05;5.20;99.90
14097;DHT22;7125;48.106;11.544;2023-01-15T13:38:39;5.10;99.90
14097;DHT22;7125;48.106;11.544;2023-01-15T13:41:08;5.10;99.90
14097;DHT22;7125;48.106;11.544;2023-01-15T13:43:39;5.10;99.90
14097;DHT22;7125;48.106;11.544;2023-01-15T13:46:11;5.10;99.90
14097;DHT22;7125;48.106;11.544;2023-01-15T13:48:43;5.10;99.90
14097;DHT22;7125;48.106;11.544;2023-01-15T13:51:27;5.10;99.90
14097;DHT22;7125;48.106;11.544;2023-01-15T13:53:56;5.10;99.90
14097;DHT22;7125;48.106;11.544;2023-01-15T13:56:27;5.10;99.90
14097;DHT22;7125;48.106;11.544;2023-01-15T13:58:55;5.10;99.90
14097;DHT22;7125;48.106;11.544;2023-01-15T14:01:30;5.10;99.90
14097;DHT22;7125;48.106;11.544;2023-01-15T14:04:02;5.10;99.90
14097;DHT22;7125;48.106;11.544;2023-01-15T14:06:40;5.10;99.90
14097;DHT22;7125;48.106;11.544;2023-01-15T14:09:12;5.10;99.90
14097;DHT22;7125;48.106;11.544;2023-01-15T14:11:48;5.00;99.90
14097;DHT22;7125;48.106;11.544;2023-01-15T14:14:45;5.00;99.90
14097;DHT22;7125;48.106;11.544;2023-01-15T14:20:25;5.00;99.90
14097;DHT22;7125;48.106;11.544;2023-01-15T14:23:10;4.90;99.90
14097;DHT22;7125;48.106;11.544;2023-01-15T14:25:47;4.90;99.90
14097;DHT22;7125;48.106;11.544;2023-01-15T14:28:36;4.90;99.90
14097;DHT22;7125;48.106;11.544;2023-01-15T14:31:30;4.90;99.90
14097;DHT22;7125;48.106;11.544;2023-01-15T14:34:20;4.80;99.90
14097;DHT22;7125;48.106;11.544;2023-01-15T14:36:53;4.80;99.90
14097;DHT22;7125;48.106;11.544;2023-01-15T14:39:39;4.70;99.90
14097;DHT22;7125;48.106;11.544;2023-01-15T14:42:10;4.60;99.90
14097;DHT22;7125;48.106;11.544;2023-01-15T14:45:07;4.50;99.90
14097;DHT22;7125;48.106;11.544;2023-01-15T14:47:44;4.40;99.90
14097;DHT22;7125;48.106;11.544;2023-01-15T14:50:28;4.30;99.90
14097;DHT22;7125;48.106;11.544;2023-01-15T14:53:04;4.20;99.90
14097;DHT22;7125;48.106;11.544;2023-01-15T14:55:35;4.00;99.90
14097;DHT22;7125;48.106;11.544;2023-01-15T14:58:09;4.00;99.90
14097;DHT22;7125;48.106;11.544;2023-01-15T15:00:44;3.90;99.90
14097;DHT22;7125;48.106;11.544;2023-01-15T15:03:18;3.80;99.90
14097;DHT22;7125;48.106;11.544;2023-01-15T15:05:46;3.80;99.90
14097;DHT22;7125;48.106;11.544;2023-01-15T15:08:17;3.80;99.90
14097;DHT22;7125;48.106;11.544;2023-01-15T15:10:47;3.70;99.90
14097;DHT22;7125;48.106;11.544;2023-01-15T15:13:27;3.70;99.90
14097;DHT22;7125;48.106;11.544;2023-01-15T15:16:03;3.60;99.90
14097;DHT22;7125;48.106;11.544;2023-01-15T15:18:35;3.60;99.90
14097;DHT22;7125;48.106;11.544;2023-01-15T15:21:07;3.50;99.90
14097;DHT22;7125;48.106;11.544;2023-01-15T15:23:42;3.50;99.90
14097;DHT22;7125;48.106;11.544;2023-01-15T15:26:20;3.50;99.90
14097;DHT22;7125;48.106;11.544;2023-01-15T15:28:55;3.40;99.90
14097;DHT22;7125;48.106;11.544;2023-01-15T15:31:23;3.40;99.90
14097;DHT22;7125;48.106;11.544;2023-01-15T15:33:52;3.40;99.90
14097;DHT22;7125;48.106;11.544;2023-01-15T15:36:21;3.40;99.90
14097;DHT22;7125;48.106;11.544;2023-01-15T15:38:55;3.40;99.90
14097;DHT22;7125;48.106;11.544;2023-01-15T15:41:25;3.40;99.90
14097;DHT22;7125;48.106;11.544;2023-01-15T15:44:15;3.40;99.90
14097;DHT22;7125;48.106;11.544;2023-01-15T15:47:17;3.50;99.90
14097;DHT22;7125;48.106;11.544;2023-01-15T15:50:02;3.50;99.90
14097;DHT22;7125;48.106;11.544;2023-01-15T15:52:29;3.50;99.90
14097;DHT22;7125;48.106;11.544;2023-01-15T15:54:58;3.50;99.90
14097;DHT22;7125;48.106;11.544;2023-01-15T15:57:27;3.50;99.90
14097;DHT22;7125;48.106;11.544;2023-01-15T15:59:56;3.60;99.90
14097;DHT22;7125;48.106;11.544;2023-01-15T16:02:25;3.60;99.90
14097;DHT22;7125;48.106;11.544;2023-01-15T16:04:57;3.60;99.90
14097;DHT22;7125;48.106;11.544;2023-01-15T16:07:26;3.60;99.90
14097;DHT22;7125;48.106;11.544;2023-01-15T16:09:58;3.60;99.90
14097;DHT22;7125;48.106;11.544;2023-01-15T16:12:28;3.60;99.90
14097;DHT22;7125;48.106;11.544;2023-01-15T16:14:56;3.60;99.90
14097;DHT22;7125;48.106;11.544;2023-01-15T16:17:24;3.50;99.90
14097;DHT22;7125;48.106;11.544;2023-01-15T16:19:54;3.60;99.90
14097;DHT22;7125;48.106;11.544;2023-01-15T16:22:21;3.50;99.90